Time;durP1;ratioP1;P1;durP2;ratioP2;P2;SDS_P1;SDS_P2;PMS_P1;PMS_P2;Temp;Humidity;BMP_temperature;BMP_pressure;BME280_temperature;BME280_humidity;BME280_pressure;Samples;Min_cycle;Max_cycle;Signal;HPM_P1;HPM_P2
2023/05/02 00:07:48;;;;;;;12.9;6.4;;;;;;;7.1;73.9;98670;;;;
2023/05/02 00:17:48;;;;;;;12.9;6.4;;;;;;;7.2;75.4;98670;;;;
2023/05/02 00:27:49;;;;;;;11.6;6.5;;;;;;;7.4;76;98670;;;;
2023/05/02 00:37:48;;;;;;;11.6;6.5;;;;;;;7.4;75.6;98680;;;;
2023/05/02 00:47:48;;;;;;;11.6;6.5;;;;;;;7.3;76.1;98690;;;;
2023/05/02 00:57:48;;;;;;;15.4;8.8;;;;;;;7.1;77.2;98690;;;;
2023/05/02 01:08:48;;;;;;;15.4;8.8;;;;;;;7.1;77.4;98690;;;;
2023/05/02 01:18:48;;;;;;;15.4;8.8;;;;;;;7.1;76.9;98690;;;;
2023/05/02 01:28:48;;;;;;;15.1;8.2;;;;;;;6.9;77.9;98680;;;;
2023/05/02 01:39:48;;;;;;;15.1;8.2;;;;;;;6.8;78.1;98670;;;;
2023/05/02 01:50:49;;;;;;;10.3;6;;;;;;;6.7;79.2;98680;;;;
2023/05/02 02:00:48;;;;;;;10.3;6;;;;;;;6.6;78.3;98680;;;;
2023/05/02 02:10:48;;;;;;;10.3;6;;;;;;;6.5;77.9;98690;;;;
2023/05/02 02:20:48;;;;;;;10.4;5.2;;;;;;;6.4;78.1;98680;;;;
2023/05/02 02:31:48;;;;;;;10.4;5.2;;;;;;;6.3;77.4;98690;;;;
2023/05/02 02:42:48;;;;;;;10.4;5.2;;;;;;;6.1;77.7;98700;;;;
2023/05/02 02:53:48;;;;;;;11.6;6.3;;;;;;;5.9;78.3;98710;;;;
2023/05/02 03:03:48;;;;;;;11.6;6.3;;;;;;;5.8;80.4;98720;;;;
2023/05/02 03:14:48;;;;;;;11.6;6.3;;;;;;;5.7;81;98720;;;;
2023/05/02 03:25:48;;;;;;;12.6;6.3;;;;;;;5.8;81.1;98720;;;;
2023/05/02 03:36:48;;;;;;;12.6;6.3;;;;;;;6;81.3;98720;;;;
2023/05/02 03:47:48;;;;;;;12.6;6.3;;;;;;;6.2;80.1;98730;;;;
2023/05/02 03:57:48;;;;;;;7.5;4.1;;;;;;;6.5;78.9;98720;;;;
2023/05/02 04:08:48;;;;;;;7.5;4.1;;;;;;;6.9;76.8;98720;;;;
2023/05/02 04:18:48;;;;;;;7.5;4.1;;;;;;;7.7;72.5;98710;;;;
2023/05/02 04:28:48;;;;;;;6.3;2.9;;;;;;;8.4;70.4;98710;;;;
2023/05/02 04:38:48;;;;;;;6.3;2.9;;;;;;;8.9;69.5;98710;;;;
2023/05/02 04:48:48;;;;;;;6.3;2.9;;;;;;;9.5;68.7;98710;;;;
2023/05/02 04:59:48;;;;;;;4.4;2.4;;;;;;;10.1;69.8;98710;;;;
2023/05/02 05:09:48;;;;;;;4.4;2.4;;;;;;;10.6;70.5;98720;;;;
2023/05/02 05:19:48;;;;;;;8.7;5.3;;;;;;;11.4;68.2;98710;;;;
2023/05/02 05:30:48;;;;;;;8.7;5.3;;;;;;;12.3;66.3;98710;;;;
2023/05/02 05:40:48;;;;;;;8.7;5.3;;;;;;;13;66.8;98720;;;;
2023/05/02 05:50:48;;;;;;;13;8.3;;;;;;;13.6;65.6;98720;;;;
2023/05/02 06:00:49;;;;;;;13;8.3;;;;;;;14.2;63.3;98730;;;;
2023/05/02 06:11:48;;;;;;;13;8.3;;;;;;;14.8;62.5;98740;;;;
2023/05/02 06:22:48;;;;;;;10.2;7;;;;;;;15.7;56.7;98740;;;;
2023/05/02 06:32:48;;;;;;;10.2;7;;;;;;;16.4;53.4;98740;;;;
2023/05/02 06:43:48;;;;;;;10.2;7;;;;;;;16.8;52;98750;;;;
2023/05/02 06:53:48;;;;;;;5.4;2.4;;;;;;;17.1;51;98760;;;;
2023/05/02 07:03:48;;;;;;;5.4;2.4;;;;;;;17.3;51;98760;;;;
2023/05/02 07:14:48;;;;;;;5.4;2.4;;;;;;;17.9;48.6;98750;;;;
2023/05/02 07:24:48;;;;;;;6.1;2;;;;;;;18;48.5;98760;;;;
2023/05/02 07:34:48;;;;;;;6.1;2;;;;;;;18;48.9;98770;;;;
2023/05/02 07:44:49;;;;;;;6.1;2;;;;;;;18;48.8;98770;;;;
2023/05/02 07:55:48;;;;;;;7.1;2.3;;;;;;;18.1;50.8;98780;;;;
2023/05/02 08:05:48;;;;;;;7.1;2.3;;;;;;;18.6;51.2;98790;;;;
2023/05/02 08:15:48;;;;;;;7.1;2.3;;;;;;;19;49.5;98790;;;;
2023/05/02 08:26:49;;;;;;;5.7;2.8;;;;;;;19.4;49;98780;;;;
2023/05/02 08:36:48;;;;;;;5.7;2.8;;;;;;;19.7;51.3;98810;;;;
2023/05/02 08:47:48;;;;;;;5.7;2.8;;;;;;;19.7;49.5;98800;;;;
2023/05/02 08:58:48;;;;;;;5.1;2.6;;;;;;;19.8;50.3;98800;;;;
2023/05/02 09:08:48;;;;;;;5.1;2.6;;;;;;;19.5;50.1;98800;;;;
2023/05/02 09:18:48;;;;;;;5.1;2.6;;;;;;;19.4;50;98810;;;;
2023/05/02 09:29:48;;;;;;;6.6;4;;;;;;;19.3;49.9;98820;;;;
2023/05/02 09:39:49;;;;;;;6.6;4;;;;;;;19.6;49.9;98810;;;;
2023/05/02 09:49:49;;;;;;;5.7;2.7;;;;;;;20.8;50.1;98800;;;;
2023/05/02 09:59:49;;;;;;;5.7;2.7;;;;;;;21.8;46.8;98800;;;;
2023/05/02 10:09:49;;;;;;;5.7;2.7;;;;;;;22.3;45;98790;;;;
2023/05/02 10:20:49;;;;;;;5.1;2.9;;;;;;;22.8;43;98770;;;;
2023/05/02 10:30:49;;;;;;;5.1;2.9;;;;;;;23;42.1;98780;;;;
2023/05/02 10:41:48;;;;;;;5.1;2.9;;;;;;;23;40.6;98780;;;;
2023/05/02 10:51:48;;;;;;;5.5;2.9;;;;;;;22.9;41.5;98780;;;;
2023/05/02 11:01:49;;;;;;;5.5;2.9;;;;;;;23.3;42.3;98770;;;;
2023/05/02 11:12:49;;;;;;;5.5;2.9;;;;;;;23.5;42.5;98760;;;;
2023/05/02 11:22:49;;;;;;;7.2;3;;;;;;;23.8;40.3;98770;;;;
2023/05/02 11:33:49;;;;;;;7.2;3;;;;;;;23.8;40.7;98780;;;;
2023/05/02 11:44:49;;;;;;;7.2;3;;;;;;;24;40.9;98770;;;;
2023/05/02 11:54:49;;;;;;;4.6;2.8;;;;;;;24.4;41.8;98750;;;;
2023/05/02 12:04:49;;;;;;;4.6;2.8;;;;;;;24;39.5;98760;;;;
2023/05/02 12:15:49;;;;;;;4.6;2.8;;;;;;;22.6;41.5;98770;;;;
2023/05/02 12:25:49;;;;;;;6.6;3.3;;;;;;;22.4;42.7;98790;;;;
2023/05/02 12:35:49;;;;;;;6.6;3.3;;;;;;;22.6;43.5;98800;;;;
2023/05/02 12:45:49;;;;;;;6.6;3.3;;;;;;;21.8;43.2;98820;;;;
2023/05/02 12:56:51;;;;;;;6;2.8;;;;;;;20.4;45.5;98810;;;;
2023/05/02 13:06:49;;;;;;;6;2.8;;;;;;;19.3;51.9;98830;;;;
2023/05/02 13:17:49;;;;;;;6;2.8;;;;;;;17.9;58.6;98860;;;;
2023/05/02 13:28:49;;;;;;;5.1;2.2;;;;;;;16.2;71.3;98860;;;;
2023/05/02 13:38:49;;;;;;;5.1;2.2;;;;;;;15.7;74;98950;;;;
2023/05/02 13:49:49;;;;;;;6.6;3.8;;;;;;;14.5;78.7;98950;;;;
2023/05/02 13:59:49;;;;;;;6.6;3.8;;;;;;;14;80.8;98960;;;;
2023/05/02 14:10:49;;;;;;;6.6;3.8;;;;;;;14.1;79.6;98930;;;;
2023/05/02 14:21:49;;;;;;;4.9;2.8;;;;;;;14.1;81.4;98900;;;;
2023/05/02 14:31:49;;;;;;;4.9;2.8;;;;;;;14.3;80.8;98850;;;;
2023/05/02 14:41:49;;;;;;;4.9;2.8;;;;;;;14.3;80.7;98830;;;;
2023/05/02 14:52:49;;;;;;;4.3;2.4;;;;;;;15.1;78.5;98860;;;;
2023/05/02 15:03:50;;;;;;;4.3;2.4;;;;;;;15.8;76.7;98880;;;;
2023/05/02 15:13:49;;;;;;;4.3;2.4;;;;;;;16.3;76.6;98900;;;;
2023/05/02 15:24:49;;;;;;;5.9;3.6;;;;;;;16.6;75.9;98910;;;;
2023/05/02 15:35:49;;;;;;;5.9;3.6;;;;;;;16.5;75.7;98930;;;;
2023/05/02 15:45:49;;;;;;;5.9;3.6;;;;;;;16.2;76;98960;;;;
2023/05/02 15:55:49;;;;;;;7.8;4.8;;;;;;;16;78;98970;;;;
2023/05/02 16:06:49;;;;;;;7.8;4.8;;;;;;;16;78.1;98980;;;;
2023/05/02 16:17:49;;;;;;;7.8;4.8;;;;;;;15.8;79;99000;;;;
2023/05/02 16:27:49;;;;;;;10.4;6.9;;;;;;;15.7;78.3;99040;;;;
2023/05/02 16:38:49;;;;;;;10.4;6.9;;;;;;;14.8;82.1;99090;;;;
2023/05/02 16:48:49;;;;;;;10.4;6.9;;;;;;;14.4;84.9;99090;;;;
2023/05/02 16:58:49;;;;;;;10.4;7;;;;;;;14;86.8;99100;;;;
2023/05/02 17:09:49;;;;;;;10.4;7;;;;;;;13.7;87.6;99100;;;;
2023/05/02 17:20:49;;;;;;;13.3;8.6;;;;;;;13.7;87.1;99140;;;;
2023/05/02 17:31:49;;;;;;;13.3;8.6;;;;;;;13.6;86.6;99180;;;;
2023/05/02 17:41:49;;;;;;;13.3;8.6;;;;;;;13.6;86;99190;;;;
2023/05/02 17:52:49;;;;;;;10.2;6.6;;;;;;;13.5;84.8;99200;;;;
2023/05/02 18:02:49;;;;;;;10.2;6.6;;;;;;;13.5;83.8;99200;;;;
2023/05/02 18:13:50;;;;;;;10.2;6.6;;;;;;;13.6;83.5;99190;;;;
2023/05/02 18:24:49;;;;;;;10.1;6.7;;;;;;;13.5;83.7;99140;;;;
2023/05/02 18:34:49;;;;;;;10.1;6.7;;;;;;;13.2;85;99110;;;;
2023/05/02 18:44:49;;;;;;;10.1;6.7;;;;;;;12.9;86.5;99070;;;;
2023/05/02 18:54:49;;;;;;;19.3;15.6;;;;;;;12.8;87;99160;;;;
2023/05/02 19:04:49;;;;;;;19.3;15.6;;;;;;;12.4;88.7;99180;;;;
2023/05/02 19:14:49;;;;;;;19.3;15.6;;;;;;;12.5;88.6;99180;;;;
2023/05/02 19:24:49;;;;;;;9.9;5.5;;;;;;;12.6;88.1;99190;;;;
2023/05/02 19:35:49;;;;;;;9.9;5.5;;;;;;;12.5;88.5;99210;;;;
2023/05/02 19:46:49;;;;;;;9.9;5.5;;;;;;;12.4;88.8;99220;;;;
2023/05/02 19:57:49;;;;;;;10.8;7.1;;;;;;;12.4;88.7;99220;;;;
2023/05/02 20:07:49;;;;;;;10.8;7.1;;;;;;;12.4;88.8;99220;;;;
2023/05/02 20:17:49;;;;;;;10.8;7.1;;;;;;;12.5;88.2;99220;;;;
2023/05/02 20:27:49;;;;;;;12.2;7;;;;;;;12.6;87.8;99220;;;;
2023/05/02 20:37:49;;;;;;;12.2;7;;;;;;;12.5;87.6;99240;;;;
2023/05/02 20:48:49;;;;;;;12.2;7;;;;;;;12.3;88;99250;;;;
2023/05/02 20:58:49;;;;;;;12.4;8.1;;;;;;;12.3;87.8;99260;;;;
2023/05/02 21:08:49;;;;;;;12.4;8.1;;;;;;;12.4;87.5;99260;;;;
2023/05/02 21:18:49;;;;;;;12.4;8.1;;;;;;;12.2;87.7;99280;;;;
2023/05/02 21:29:49;;;;;;;11;6.5;;;;;;;12.2;87.9;99270;;;;
2023/05/02 21:39:49;;;;;;;11;6.5;;;;;;;12.4;87.5;99270;;;;
2023/05/02 21:50:49;;;;;;;10.3;7.2;;;;;;;12.4;87.2;99280;;;;
2023/05/02 22:00:49;;;;;;;10.3;7.2;;;;;;;12.3;87.1;99300;;;;
2023/05/02 22:10:49;;;;;;;10.3;7.2;;;;;;;12;88.5;99310;;;;
2023/05/02 22:20:49;;;;;;;12.3;10.2;;;;;;;12;88.7;99320;;;;
2023/05/02 22:31:50;;;;;;;12.3;10.2;;;;;;;11.8;89.6;99330;;;;
2023/05/02 22:41:49;;;;;;;12.3;10.2;;;;;;;11.8;89.6;99330;;;;
2023/05/02 22:51:50;;;;;;;13.6;9.2;;;;;;;11.8;89.5;99340;;;;
2023/05/02 23:02:49;;;;;;;13.6;9.2;;;;;;;11.8;89.5;99340;;;;
2023/05/02 23:12:49;;;;;;;13.6;9.2;;;;;;;11.9;89.3;99330;;;;
2023/05/02 23:23:49;;;;;;;11.3;6.9;;;;;;;12.1;89;99340;;;;
2023/05/02 23:34:49;;;;;;;11.3;6.9;;;;;;;12.1;88.2;99350;;;;
2023/05/02 23:44:49;;;;;;;11.3;6.9;;;;;;;12;88;99340;;;;
2023/05/02 23:55:49;;;;;;;11.3;7.7;;;;;;;12.1;87.7;99340;;;;
